createdAt,value
2023-03-27T00:00:57.181Z,6.40625
2023-03-27T00:02:05.682Z,6.436462
2023-03-27T00:03:15.409Z,6.416321
2023-03-27T00:04:22.958Z,6.40625
2023-03-27T00:05:30.614Z,6.386108
2023-03-27T00:06:40.282Z,6.40625
2023-03-27T00:07:48.943Z,6.40625
2023-03-27T00:08:58.624Z,6.386108
2023-03-27T00:10:08.258Z,6.376038
2023-03-27T00:11:16.947Z,6.355896
2023-03-27T00:12:25.622Z,6.355896
2023-03-27T00:13:33.269Z,6.345825
2023-03-27T00:14:43.914Z,6.345825
2023-03-27T00:15:53.577Z,6.345825
2023-03-27T00:17:02.328Z,6.325684
2023-03-27T00:18:10.946Z,6.355896
2023-03-27T00:19:19.568Z,6.355896
2023-03-27T00:20:27.224Z,6.325684
2023-03-27T00:21:35.916Z,6.305542
2023-03-27T00:22:45.597Z,6.325684
2023-03-27T00:23:53.243Z,6.345825
2023-03-27T00:25:02.901Z,6.305542
2023-03-27T00:26:12.596Z,6.325684
2023-03-27T00:27:21.305Z,6.295471
2023-03-27T00:28:30.956Z,6.295471
2023-03-27T00:29:38.631Z,6.255188
2023-03-27T00:30:48.341Z,6.265259
2023-03-27T00:31:57.972Z,6.255188
2023-03-27T00:33:05.686Z,6.204834
2023-03-27T00:34:15.321Z,6.174622
2023-03-27T00:35:25.049Z,6.174622
2023-03-27T00:36:33.744Z,6.194763
2023-03-27T00:37:43.438Z,6.164551
2023-03-27T00:38:51.086Z,6.174622
2023-03-27T00:39:59.733Z,6.194763
2023-03-27T00:41:09.509Z,6.204834
2023-03-27T00:42:18.099Z,6.194763
2023-03-27T00:43:27.772Z,6.174622
2023-03-27T00:44:39.636Z,6.174622
2023-03-27T00:45:45.063Z,6.194763
2023-03-27T00:46:54.760Z,6.224976
2023-03-27T00:48:04.482Z,6.255188
2023-03-27T00:49:13.207Z,6.265259
2023-03-27T00:50:22.829Z,6.265259
2023-03-27T00:51:32.521Z,6.265259
2023-03-27T00:52:42.231Z,6.265259
2023-03-27T00:53:51.880Z,6.295471
2023-03-27T00:55:00.539Z,6.295471
2023-03-27T00:56:09.181Z,6.305542
2023-03-27T00:57:17.871Z,6.325684
2023-03-27T00:58:27.530Z,6.376038
2023-03-27T00:59:37.182Z,6.386108
2023-03-27T01:00:44.833Z,6.376038
2023-03-27T01:01:54.530Z,6.40625
2023-03-27T01:03:03.210Z,6.40625
2023-03-27T01:04:11.831Z,6.376038
2023-03-27T01:05:21.494Z,6.40625
2023-03-27T01:06:30.140Z,6.386108
2023-03-27T01:07:39.822Z,6.376038
2023-03-27T01:08:50.459Z,6.40625
2023-03-27T01:09:59.111Z,6.40625
2023-03-27T01:11:08.790Z,6.416321
2023-03-27T01:12:17.431Z,6.416321
2023-03-27T01:13:27.140Z,6.436462
2023-03-27T01:14:37.780Z,6.486816
2023-03-27T01:15:47.457Z,6.506958
2023-03-27T01:16:56.136Z,6.486816
2023-03-27T01:18:05.844Z,6.456604
2023-03-27T01:19:14.464Z,6.446533
2023-03-27T01:20:24.158Z,6.456604
2023-03-27T01:21:33.782Z,6.446533
2023-03-27T01:22:42.448Z,6.386108
2023-03-27T01:23:59.290Z,6.376038
2023-03-27T01:25:01.742Z,6.305542
2023-03-27T01:26:11.398Z,6.27533
2023-03-27T01:27:22.044Z,6.255188
2023-03-27T01:28:31.747Z,6.235046
2023-03-27T01:29:41.482Z,6.164551
2023-03-27T01:30:50.129Z,6.124268
2023-03-27T01:31:58.785Z,6.114197
2023-03-27T01:33:08.498Z,6.053772
2023-03-27T01:34:18.133Z,6.053772
2023-03-27T01:35:26.872Z,6.013489
2023-03-27T01:36:36.462Z,5.973206
2023-03-27T01:37:46.175Z,5.993347
2023-03-27T01:38:55.826Z,5.912781
2023-03-27T01:40:05.473Z,5.932922
2023-03-27T01:41:13.142Z,5.872498
2023-03-27T01:42:22.780Z,5.892639
2023-03-27T01:43:32.463Z,5.862427
2023-03-27T01:44:43.395Z,5.892639
2023-03-27T01:45:50.776Z,5.872498
2023-03-27T01:46:58.464Z,5.832214
2023-03-27T01:48:08.155Z,5.862427
2023-03-27T01:49:17.780Z,5.892639
2023-03-27T01:50:25.431Z,5.842285
2023-03-27T01:51:35.108Z,5.761719
2023-03-27T01:52:44.738Z,5.802002
2023-03-27T01:53:54.440Z,5.802002
2023-03-27T01:55:04.095Z,5.751648
2023-03-27T01:56:11.769Z,5.761719
2023-03-27T01:57:21.426Z,5.751648
2023-03-27T01:58:30.132Z,5.731506
2023-03-27T01:59:38.765Z,5.681152
2023-03-27T02:00:50.735Z,5.661011
2023-03-27T02:01:58.055Z,5.65094
2023-03-27T02:03:07.772Z,5.640869
2023-03-27T02:04:17.446Z,5.65094
2023-03-27T02:05:26.133Z,5.65094
2023-03-27T02:06:35.843Z,5.65094
2023-03-27T02:07:44.575Z,5.661011
2023-03-27T02:08:52.205Z,5.640869
2023-03-27T02:10:01.869Z,5.610657
2023-03-27T02:11:10.518Z,5.620728
2023-03-27T02:12:19.180Z,5.590515
2023-03-27T02:13:28.925Z,5.640869
2023-03-27T02:14:36.542Z,5.65094
2023-03-27T02:15:46.206Z,5.620728
2023-03-27T02:16:54.901Z,5.620728
2023-03-27T02:18:03.559Z,5.610657
2023-03-27T02:19:12.211Z,5.640869
2023-03-27T02:20:21.866Z,5.640869
2023-03-27T02:21:29.523Z,5.640869
2023-03-27T02:22:39.284Z,5.661011
2023-03-27T02:23:47.951Z,5.640869
2023-03-27T02:24:55.612Z,5.681152
2023-03-27T02:26:05.293Z,5.731506
2023-03-27T02:27:13.958Z,5.691223
2023-03-27T02:28:22.679Z,5.721436
2023-03-27T02:29:32.341Z,5.691223
2023-03-27T02:30:42.021Z,5.711365
2023-03-27T02:31:52.654Z,5.691223
2023-03-27T02:33:01.356Z,5.721436
2023-03-27T02:34:11.021Z,5.711365
2023-03-27T02:35:21.679Z,5.731506
2023-03-27T02:36:29.332Z,5.751648
2023-03-27T02:37:36.971Z,5.751648
2023-03-27T02:38:46.669Z,5.761719
2023-03-27T02:39:55.353Z,5.791931
2023-03-27T02:41:04.971Z,5.791931
2023-03-27T02:42:12.650Z,5.791931
2023-03-27T02:43:20.372Z,5.822144
2023-03-27T02:44:30.071Z,5.822144
2023-03-27T02:45:39.729Z,5.822144
2023-03-27T02:46:49.366Z,5.761719
2023-03-27T02:47:59.062Z,5.751648
2023-03-27T02:49:06.799Z,5.751648
2023-03-27T02:50:16.473Z,5.751648
2023-03-27T02:51:26.144Z,5.731506
2023-03-27T02:52:34.780Z,5.711365
2023-03-27T02:53:44.448Z,5.721436
2023-03-27T02:54:52.148Z,5.721436
2023-03-27T02:56:00.818Z,5.721436
2023-03-27T02:57:10.536Z,5.721436
2023-03-27T02:58:20.105Z,5.721436
2023-03-27T02:59:29.788Z,5.681152
2023-03-27T03:00:38.479Z,5.640869
2023-03-27T03:01:47.274Z,5.681152
2023-03-27T03:02:55.929Z,5.691223
2023-03-27T03:04:04.547Z,5.711365
2023-03-27T03:05:13.191Z,5.681152
2023-03-27T03:06:22.855Z,5.681152
2023-03-27T03:07:30.503Z,5.640869
2023-03-27T03:08:40.186Z,5.640869
2023-03-27T03:09:48.890Z,5.691223
2023-03-27T03:10:57.590Z,5.681152
2023-03-27T03:12:07.256Z,5.570374
2023-03-27T03:13:15.868Z,5.53009
2023-03-27T03:14:25.556Z,5.53009
2023-03-27T03:15:35.223Z,5.53009
2023-03-27T03:16:44.949Z,5.53009
2023-03-27T03:17:54.557Z,5.499878
2023-03-27T03:19:03.223Z,5.479736
2023-03-27T03:20:10.891Z,5.509949
2023-03-27T03:21:20.585Z,5.459595
2023-03-27T03:22:29.239Z,5.459595
2023-03-27T03:23:37.930Z,5.469666
2023-03-27T03:24:48.587Z,5.469666
2023-03-27T03:25:57.239Z,5.469666
2023-03-27T03:27:06.890Z,5.469666
2023-03-27T03:28:16.573Z,5.459595
2023-03-27T03:29:24.217Z,5.409241
2023-03-27T03:30:33.902Z,5.409241
2023-03-27T03:31:43.826Z,5.389099
2023-03-27T03:32:52.226Z,5.379028
2023-03-27T03:34:01.874Z,5.358887
2023-03-27T03:35:10.513Z,5.379028
2023-03-27T03:36:20.155Z,5.318604
2023-03-27T03:37:28.898Z,5.328674
2023-03-27T03:38:37.758Z,5.318604
2023-03-27T03:39:45.189Z,5.298462
2023-03-27T03:40:52.838Z,5.207825
2023-03-27T03:42:02.480Z,5.197754
2023-03-27T03:43:13.148Z,5.167542
2023-03-27T03:44:21.932Z,5.197754
2023-03-27T03:45:31.478Z,5.227966
2023-03-27T03:46:40.142Z,5.1474
2023-03-27T03:47:48.795Z,5.137329
2023-03-27T03:48:59.339Z,5.137329
2023-03-27T03:50:07.107Z,5.167542
2023-03-27T03:51:16.772Z,5.066833
2023-03-27T03:52:26.416Z,5.036621
2023-03-27T03:53:35.074Z,4.996338
2023-03-27T03:54:46.638Z,4.966125
2023-03-27T03:55:54.444Z,4.986267
2023-03-27T03:57:03.229Z,4.925842
2023-03-27T03:58:12.783Z,4.935913
2023-03-27T03:59:21.468Z,4.915771
2023-03-27T04:00:30.166Z,4.935913
2023-03-27T04:01:39.809Z,4.915771
2023-03-27T04:02:49.563Z,4.915771
2023-03-27T04:03:59.258Z,4.855347
2023-03-27T04:05:08.503Z,4.77478
2023-03-27T04:06:17.582Z,4.744568
2023-03-27T04:07:27.220Z,4.744568
2023-03-27T04:08:35.891Z,4.77478
2023-03-27T04:09:44.622Z,4.734497
2023-03-27T04:10:54.333Z,4.744568
2023-03-27T04:12:01.929Z,4.734497
2023-03-27T04:13:10.584Z,4.714355
2023-03-27T04:14:20.265Z,4.734497
2023-03-27T04:15:28.361Z,4.754639
2023-03-27T04:16:37.325Z,4.684143
2023-03-27T04:17:46.765Z,4.734497
2023-03-27T04:18:56.427Z,4.684143
2023-03-27T04:20:05.108Z,4.674072
2023-03-27T04:21:15.039Z,4.704285
2023-03-27T04:22:22.477Z,4.734497
2023-03-27T04:23:31.149Z,4.754639
2023-03-27T04:24:40.807Z,4.754639
2023-03-27T04:25:50.495Z,4.815063
2023-03-27T04:27:00.197Z,4.804993
2023-03-27T04:28:07.847Z,4.855347
2023-03-27T04:29:17.525Z,4.815063
2023-03-27T04:30:26.223Z,4.804993
2023-03-27T04:31:34.944Z,4.804993
2023-03-27T04:32:44.594Z,4.784851
2023-03-27T04:33:54.226Z,4.815063
2023-03-27T04:35:02.916Z,4.855347
2023-03-27T04:36:12.578Z,4.89563
2023-03-27T04:37:23.027Z,4.925842
2023-03-27T04:38:29.859Z,4.925842
2023-03-27T04:39:38.509Z,4.966125
2023-03-27T04:40:46.223Z,4.996338
2023-03-27T04:41:55.857Z,5.046692
2023-03-27T04:43:05.554Z,5.066833
2023-03-27T04:44:15.196Z,5.076904
2023-03-27T04:45:24.887Z,5.137329
2023-03-27T04:46:32.601Z,5.1474
2023-03-27T04:47:42.225Z,5.177612
2023-03-27T04:48:50.874Z,5.197754
2023-03-27T04:49:59.525Z,5.207825
2023-03-27T04:51:09.279Z,5.258179
2023-03-27T04:52:18.888Z,5.258179
2023-03-27T04:53:27.532Z,5.207825
2023-03-27T04:54:37.195Z,5.227966
2023-03-27T04:55:45.948Z,5.248108
2023-03-27T04:56:55.626Z,5.207825
2023-03-27T04:58:04.251Z,5.197754
2023-03-27T04:59:11.908Z,5.207825
2023-03-27T05:00:21.567Z,5.197754
2023-03-27T05:01:29.283Z,5.197754
2023-03-27T05:02:37.890Z,5.177612
2023-03-27T05:03:47.524Z,5.167542
2023-03-27T05:04:56.276Z,5.117188
2023-03-27T05:06:05.842Z,5.137329
2023-03-27T05:07:14.495Z,5.137329
2023-03-27T05:08:22.149Z,5.137329
2023-03-27T05:09:31.811Z,5.137329
2023-03-27T05:10:39.510Z,5.107117
2023-03-27T05:11:49.221Z,5.016479
2023-03-27T05:12:58.876Z,5.066833
2023-03-27T05:14:08.539Z,5.076904
2023-03-27T05:15:18.184Z,5.097046
2023-03-27T05:16:26.933Z,5.117188
2023-03-27T05:17:34.567Z,5.107117
2023-03-27T05:18:44.194Z,5.076904
2023-03-27T05:19:51.834Z,4.996338
2023-03-27T05:21:01.573Z,5.016479
2023-03-27T05:22:11.222Z,5.016479
2023-03-27T05:23:20.903Z,4.966125
2023-03-27T05:24:30.563Z,4.996338
2023-03-27T05:25:39.261Z,4.986267
2023-03-27T05:26:48.948Z,4.996338
2023-03-27T05:27:58.594Z,4.966125
2023-03-27T05:29:06.260Z,4.996338
2023-03-27T05:30:14.917Z,4.996338
2023-03-27T05:31:23.637Z,4.966125
2023-03-27T05:32:31.305Z,4.925842
2023-03-27T05:33:40.934Z,4.885559
2023-03-27T05:34:49.582Z,4.855347
2023-03-27T05:35:57.333Z,4.835205
2023-03-27T05:37:07.068Z,4.754639
2023-03-27T05:38:15.605Z,4.744568
2023-03-27T05:39:24.263Z,4.77478
2023-03-27T05:40:34.002Z,4.784851
2023-03-27T05:41:43.744Z,4.744568
2023-03-27T05:42:53.411Z,4.734497
2023-03-27T05:44:02.065Z,4.734497
2023-03-27T05:45:09.739Z,4.704285
2023-03-27T05:46:20.706Z,4.704285
2023-03-27T05:47:28.507Z,4.704285
2023-03-27T05:48:38.148Z,4.674072
2023-03-27T05:49:47.818Z,4.704285
2023-03-27T05:50:56.704Z,4.704285
2023-03-27T05:52:06.175Z,4.664001
2023-03-27T05:53:14.865Z,4.664001
2023-03-27T05:54:24.472Z,4.633789
2023-03-27T05:55:34.164Z,4.664001
2023-03-27T05:56:42.898Z,4.664001
2023-03-27T05:57:51.556Z,4.674072
2023-03-27T05:59:01.268Z,4.664001
2023-03-27T06:00:09.915Z,4.633789
2023-03-27T06:01:19.607Z,4.593506
2023-03-27T06:02:29.394Z,4.593506
2023-03-27T06:03:37.128Z,4.583435
2023-03-27T06:04:46.677Z,4.563293
2023-03-27T06:05:55.329Z,4.52301
2023-03-27T06:07:05.035Z,4.553223
2023-03-27T06:08:14.725Z,4.533081
2023-03-27T06:09:24.523Z,4.452515
2023-03-27T06:10:34.057Z,4.442444
2023-03-27T06:11:43.773Z,4.422302
2023-03-27T06:12:53.442Z,4.442444
2023-03-27T06:14:03.101Z,4.482727
2023-03-27T06:15:12.757Z,4.442444
2023-03-27T06:16:22.492Z,4.412231
2023-03-27T06:17:32.346Z,4.422302
2023-03-27T06:18:40.916Z,4.452515
2023-03-27T06:19:49.613Z,4.442444
2023-03-27T06:20:59.365Z,4.452515
2023-03-27T06:22:08.008Z,4.452515
2023-03-27T06:23:16.705Z,4.482727
2023-03-27T06:24:26.341Z,4.452515
2023-03-27T06:25:34.031Z,4.442444
2023-03-27T06:26:43.680Z,4.402161
2023-03-27T06:27:52.371Z,4.341736
2023-03-27T06:29:01.018Z,4.351807
2023-03-27T06:30:10.649Z,4.382019
2023-03-27T06:31:18.371Z,4.382019
2023-03-27T06:32:28.078Z,4.311523
2023-03-27T06:33:37.723Z,4.220886
2023-03-27T06:34:46.379Z,4.120178
2023-03-27T06:35:56.183Z,4.079895
2023-03-27T06:37:04.728Z,4.039612
2023-03-27T06:38:13.369Z,4.059753
2023-03-27T06:39:23.046Z,4.100037
2023-03-27T06:40:30.705Z,4.079895
2023-03-27T06:41:39.380Z,3.959045
2023-03-27T06:42:49.208Z,3.948975
2023-03-27T06:43:58.907Z,3.979187
2023-03-27T06:45:08.628Z,3.918762
2023-03-27T06:46:17.378Z,3.948975
2023-03-27T06:47:28.073Z,4.009399
2023-03-27T06:48:37.730Z,3.959045
2023-03-27T06:49:46.372Z,3.878479
2023-03-27T06:50:55.317Z,3.868408
2023-03-27T06:52:04.840Z,3.838196
2023-03-27T06:53:23.893Z,3.797913
2023-03-27T06:54:24.267Z,3.727417
2023-03-27T06:55:33.019Z,3.677063
2023-03-27T06:56:41.665Z,3.576355
2023-03-27T06:57:51.318Z,3.616638
2023-03-27T06:59:00.985Z,3.576355
2023-03-27T07:00:09.664Z,3.526001
2023-03-27T07:01:19.356Z,3.556213
2023-03-27T07:02:28.054Z,3.586426
2023-03-27T07:03:37.682Z,3.616638
2023-03-27T07:04:54.395Z,3.646851
2023-03-27T07:05:57.215Z,3.687134
2023-03-27T07:07:06.658Z,3.697205
2023-03-27T07:08:23.026Z,3.727417
2023-03-27T07:09:25.001Z,3.677063
2023-03-27T07:10:34.665Z,3.646851
2023-03-27T07:11:42.329Z,3.616638
2023-03-27T07:12:52.080Z,3.546143
2023-03-27T07:14:01.745Z,3.576355
2023-03-27T07:15:10.381Z,3.576355
2023-03-27T07:16:20.090Z,3.596497
2023-03-27T07:17:38.113Z,3.556213
2023-03-27T07:18:39.374Z,3.586426
2023-03-27T07:19:49.026Z,3.616638
2023-03-27T07:20:58.991Z,3.626709
2023-03-27T07:22:07.325Z,3.646851
2023-03-27T07:23:16.004Z,3.656921
2023-03-27T07:24:23.652Z,3.646851
2023-03-27T07:25:33.345Z,3.687134
2023-03-27T07:26:41.074Z,3.646851
2023-03-27T07:27:50.766Z,3.596497
2023-03-27T07:29:00.649Z,3.616638
2023-03-27T07:30:08.179Z,3.656921
2023-03-27T07:31:29.657Z,3.677063
2023-03-27T07:32:36.582Z,3.687134
2023-03-27T07:33:39.180Z,3.626709
2023-03-27T07:34:47.787Z,3.677063
2023-03-27T07:35:56.640Z,3.677063
2023-03-27T07:37:05.103Z,3.687134
2023-03-27T07:38:14.833Z,3.646851
2023-03-27T07:39:22.492Z,3.596497
2023-03-27T07:40:39.263Z,3.546143
2023-03-27T07:41:42.695Z,3.556213
2023-03-27T07:42:51.336Z,3.576355
2023-03-27T07:44:01.051Z,3.556213
2023-03-27T07:45:09.744Z,3.445435
2023-03-27T07:46:18.399Z,3.435364
2023-03-27T07:47:28.053Z,3.465576
2023-03-27T07:48:37.889Z,3.475647
2023-03-27T07:49:46.556Z,3.415222
2023-03-27T07:50:58.143Z,3.415222
2023-03-27T07:52:05.853Z,3.415222
2023-03-27T07:53:33.099Z,3.344727
2023-03-27T07:54:27.149Z,3.314514
2023-03-27T07:55:35.838Z,3.26416
2023-03-27T07:56:44.529Z,3.26416
2023-03-27T07:59:01.817Z,3.254089
2023-03-27T08:00:10.622Z,3.193665
2023-03-27T08:01:20.300Z,3.143311
2023-03-27T08:02:28.991Z,3.113098
2023-03-27T08:03:37.842Z,3.113098
2023-03-27T08:04:47.385Z,3.103027
2023-03-27T08:05:57.221Z,3.113098
2023-03-27T08:07:06.839Z,3.113098
2023-03-27T08:08:16.509Z,3.082886
2023-03-27T08:09:26.160Z,3.072815
2023-03-27T08:10:34.812Z,3.072815
2023-03-27T08:11:44.479Z,3.042603
2023-03-27T08:12:54.135Z,3.032532
2023-03-27T08:14:03.873Z,3.052673
2023-03-27T08:15:13.566Z,3.042603
2023-03-27T08:16:21.208Z,3.072815
2023-03-27T08:17:30.007Z,3.082886
2023-03-27T08:18:39.587Z,3.103027
2023-03-27T08:19:48.282Z,3.103027
2023-03-27T08:20:56.943Z,3.113098
2023-03-27T08:22:06.616Z,3.163452
2023-03-27T08:23:15.288Z,3.254089
2023-03-27T08:24:25.081Z,3.364868
2023-03-27T08:25:34.779Z,3.465576
2023-03-27T08:26:43.501Z,3.505859
2023-03-27T08:27:53.223Z,3.626709
2023-03-27T08:29:00.937Z,3.646851
2023-03-27T08:30:09.613Z,3.807983
2023-03-27T08:31:19.446Z,4.059753
2023-03-27T08:32:27.064Z,4.200745
2023-03-27T08:33:36.747Z,4.452515
2023-03-27T08:34:45.382Z,4.492798
2023-03-27T08:35:53.176Z,4.52301
2023-03-27T08:37:01.820Z,4.482727
2023-03-27T08:38:20.148Z,4.482727
2023-03-27T08:39:20.313Z,4.422302
2023-03-27T08:40:29.978Z,4.341736
2023-03-27T08:41:37.669Z,4.321594
2023-03-27T08:42:47.370Z,4.301453
2023-03-27T08:43:56.352Z,4.241028
2023-03-27T08:45:05.153Z,4.200745
2023-03-27T08:46:14.794Z,4.190674
2023-03-27T08:47:22.489Z,4.130249
2023-03-27T08:48:31.119Z,4.130249
2023-03-27T08:49:40.803Z,4.079895
2023-03-27T08:50:49.442Z,4.009399
2023-03-27T08:51:59.102Z,3.878479
2023-03-27T08:53:07.758Z,3.938904
2023-03-27T08:54:15.462Z,3.918762
2023-03-27T08:55:25.132Z,3.979187
2023-03-27T08:56:32.830Z,3.908691
2023-03-27T08:57:42.230Z,3.878479
2023-03-27T08:58:51.311Z,3.908691
2023-03-27T08:59:59.989Z,3.828125
2023-03-27T09:01:09.654Z,3.656921
2023-03-27T09:02:19.322Z,3.495789
2023-03-27T09:03:28.086Z,3.405151
2023-03-27T09:04:37.791Z,3.395081
2023-03-27T09:05:47.391Z,3.374939
2023-03-27T09:06:56.977Z,3.364868
2023-03-27T09:08:06.655Z,3.324585
2023-03-27T09:09:15.326Z,3.324585
2023-03-27T09:10:23.964Z,3.314514
2023-03-27T09:11:32.809Z,3.314514
2023-03-27T09:12:41.455Z,3.254089
2023-03-27T09:13:51.217Z,3.314514
2023-03-27T09:14:59.927Z,3.344727
2023-03-27T09:16:08.588Z,3.405151
2023-03-27T09:17:18.220Z,3.364868
2023-03-27T09:18:25.860Z,3.405151
2023-03-27T09:19:35.610Z,3.415222
2023-03-27T09:20:44.263Z,3.314514
2023-03-27T09:21:51.988Z,3.364868
2023-03-27T09:23:01.643Z,3.435364
2023-03-27T09:24:10.315Z,3.495789
2023-03-27T09:25:20.008Z,3.526001
2023-03-27T09:26:29.669Z,3.526001
2023-03-27T09:27:37.322Z,3.576355
2023-03-27T09:28:48.582Z,3.616638
2023-03-27T09:30:04.782Z,3.616638
2023-03-27T09:31:07.364Z,3.646851
2023-03-27T09:32:17.093Z,3.697205
2023-03-27T09:33:25.770Z,3.727417
2023-03-27T09:34:34.486Z,3.797913
2023-03-27T09:35:44.192Z,3.737488
2023-03-27T09:36:52.827Z,3.626709
2023-03-27T09:38:03.527Z,3.586426
2023-03-27T09:39:13.170Z,3.596497
2023-03-27T09:40:21.840Z,3.626709
2023-03-27T09:41:30.497Z,3.596497
2023-03-27T09:42:39.172Z,3.656921
2023-03-27T09:43:48.911Z,3.687134
2023-03-27T09:45:00.291Z,3.697205
2023-03-27T09:46:08.923Z,3.727417
2023-03-27T09:47:18.573Z,3.737488
2023-03-27T09:48:28.230Z,3.737488
2023-03-27T09:49:35.921Z,3.687134
2023-03-27T09:50:45.612Z,3.656921
2023-03-27T09:51:54.265Z,3.7677
2023-03-27T09:53:03.951Z,3.878479
2023-03-27T09:54:13.637Z,3.979187
2023-03-27T09:55:22.350Z,4.009399
2023-03-27T09:56:32.021Z,3.948975
2023-03-27T09:57:40.702Z,3.989258
2023-03-27T09:58:50.358Z,4.059753
2023-03-27T10:00:00.382Z,4.100037
2023-03-27T10:01:07.081Z,4.120178
2023-03-27T10:02:15.687Z,4.039612
2023-03-27T10:03:25.392Z,4.059753
2023-03-27T10:04:35.033Z,4.039612
2023-03-27T10:05:44.701Z,4.01947
2023-03-27T10:06:53.364Z,3.979187
2023-03-27T10:08:01.039Z,3.979187
2023-03-27T10:09:09.693Z,4.009399
2023-03-27T10:10:19.393Z,3.979187
2023-03-27T10:11:28.044Z,3.989258
2023-03-27T10:12:37.762Z,4.01947
2023-03-27T10:13:47.495Z,4.130249
2023-03-27T10:14:56.204Z,4.261169
2023-03-27T10:16:05.876Z,4.341736
2023-03-27T10:17:14.520Z,4.351807
2023-03-27T10:18:24.164Z,4.351807
2023-03-27T10:19:32.877Z,4.351807
2023-03-27T10:20:41.621Z,4.382019
2023-03-27T10:21:51.279Z,4.422302
2023-03-27T10:22:59.973Z,4.533081
2023-03-27T10:24:08.613Z,4.593506
2023-03-27T10:25:18.297Z,4.583435
2023-03-27T10:26:26.022Z,4.563293
2023-03-27T10:27:34.652Z,4.744568
2023-03-27T10:28:44.298Z,4.744568
2023-03-27T10:29:51.955Z,4.925842
2023-03-27T10:31:01.322Z,5.046692
2023-03-27T10:32:10.041Z,5.097046
2023-03-27T10:33:19.663Z,5.097046
2023-03-27T10:34:29.322Z,5.046692
2023-03-27T10:35:39.074Z,5.066833
2023-03-27T10:36:48.681Z,5.016479
2023-03-27T10:37:58.346Z,4.996338
2023-03-27T10:39:06.057Z,4.986267
2023-03-27T10:40:15.757Z,4.986267
2023-03-27T10:41:28.200Z,5.076904
2023-03-27T10:42:34.271Z,5.076904
2023-03-27T10:43:43.837Z,5.107117
2023-03-27T10:44:52.496Z,5.177612
2023-03-27T10:46:01.217Z,5.107117
2023-03-27T10:47:09.873Z,4.986267
2023-03-27T10:48:18.541Z,4.89563
2023-03-27T10:49:28.225Z,4.855347
2023-03-27T10:50:38.001Z,4.885559
2023-03-27T10:51:46.667Z,4.835205
2023-03-27T10:52:55.426Z,4.855347
2023-03-27T10:54:04.172Z,4.89563
2023-03-27T10:55:12.656Z,4.986267
2023-03-27T10:56:22.330Z,4.915771
2023-03-27T10:57:31.020Z,4.89563
2023-03-27T10:58:40.754Z,4.925842
2023-03-27T10:59:51.454Z,4.956055
2023-03-27T11:01:01.281Z,5.117188
2023-03-27T11:02:10.851Z,5.248108
2023-03-27T11:03:20.532Z,5.258179
2023-03-27T11:04:29.204Z,5.328674
2023-03-27T11:05:38.951Z,5.479736
2023-03-27T11:06:48.659Z,5.560303
2023-03-27T11:07:58.359Z,5.53009
2023-03-27T11:09:07.007Z,5.459595
2023-03-27T11:10:14.668Z,5.459595
2023-03-27T11:11:24.350Z,5.469666
2023-03-27T11:12:32.008Z,5.389099
2023-03-27T11:13:41.667Z,5.298462
2023-03-27T11:14:51.353Z,5.288391
2023-03-27T11:16:00.097Z,5.197754
2023-03-27T11:17:09.809Z,5.117188
2023-03-27T11:18:17.471Z,5.076904
2023-03-27T11:19:26.157Z,4.996338
2023-03-27T11:20:35.829Z,4.966125
2023-03-27T11:21:43.505Z,4.996338
2023-03-27T11:22:52.193Z,5.097046
2023-03-27T11:24:01.846Z,5.177612
2023-03-27T11:25:09.511Z,5.197754
2023-03-27T11:26:18.208Z,5.177612
2023-03-27T11:27:27.864Z,5.227966
2023-03-27T11:28:37.523Z,5.27832
2023-03-27T11:29:47.236Z,5.409241
2023-03-27T11:30:54.981Z,5.560303
2023-03-27T11:32:04.539Z,5.620728
2023-03-27T11:33:14.248Z,5.731506
2023-03-27T11:34:29.213Z,5.872498
2023-03-27T11:35:31.567Z,5.932922
2023-03-27T11:36:41.233Z,6.265259
2023-03-27T11:37:49.884Z,6.506958
2023-03-27T11:38:59.662Z,6.768799
2023-03-27T11:40:08.332Z,7.171631
2023-03-27T11:41:17.022Z,7.483826
2023-03-27T11:42:26.709Z,7.483826
2023-03-27T11:43:34.418Z,7.352905
2023-03-27T11:44:44.080Z,7.060852
2023-03-27T11:45:53.752Z,6.889648
2023-03-27T11:47:01.459Z,6.819153
2023-03-27T11:48:11.334Z,6.839294
2023-03-27T11:49:20.783Z,7.070923
2023-03-27T11:50:29.427Z,7.201843
2023-03-27T11:51:39.100Z,7.03064
2023-03-27T11:52:46.773Z,6.960144
2023-03-27T11:53:56.446Z,7.362976
2023-03-27T11:55:05.106Z,7.826233
2023-03-27T11:56:12.750Z,8.047791
2023-03-27T11:57:22.460Z,8.601685
2023-03-27T11:58:31.087Z,8.954163
2023-03-27T11:59:40.794Z,9.306641
2023-03-27T12:00:50.459Z,9.67926
2023-03-27T12:01:58.211Z,10.011597
2023-03-27T12:03:07.888Z,10.605774
2023-03-27T12:04:17.537Z,10.867615
2023-03-27T12:05:26.174Z,10.525208
2023-03-27T12:06:34.872Z,9.890747
2023-03-27T12:07:47.574Z,9.135437
2023-03-27T12:08:53.268Z,8.641968
2023-03-27T12:10:02.888Z,8.380127
2023-03-27T12:11:12.558Z,7.967224
2023-03-27T12:12:22.251Z,7.453613
2023-03-27T12:13:41.008Z,7.070923
2023-03-27T12:14:43.477Z,6.53717
2023-03-27T12:15:52.235Z,6.124268
2023-03-27T12:17:01.935Z,5.711365
2023-03-27T12:18:10.625Z,5.540161
2023-03-27T12:19:28.268Z,5.469666
2023-03-27T12:20:30.895Z,5.53009
2023-03-27T12:21:40.559Z,6.083984
2023-03-27T12:22:50.247Z,6.919861
2023-03-27T12:23:58.922Z,7.312622
2023-03-27T12:25:07.598Z,7.312622
2023-03-27T12:26:17.283Z,7.695312
2023-03-27T12:27:24.971Z,7.866516
2023-03-27T12:28:34.634Z,8.078003
2023-03-27T12:29:43.276Z,8.259277
2023-03-27T12:30:50.972Z,8.370056
2023-03-27T12:32:00.673Z,8.118286
2023-03-27T12:33:09.376Z,8.078003
2023-03-27T12:34:19.121Z,7.695312
2023-03-27T12:35:28.694Z,7.564392
2023-03-27T12:36:37.340Z,7.433472
2023-03-27T12:37:47.056Z,7.111206
2023-03-27T12:38:56.706Z,6.839294
2023-03-27T12:40:05.467Z,6.587524
2023-03-27T12:41:15.109Z,6.557312
2023-03-27T12:42:23.796Z,6.637878
2023-03-27T12:43:34.493Z,6.506958
2023-03-27T12:44:44.166Z,6.668091
2023-03-27T12:45:53.498Z,6.738586
2023-03-27T12:47:01.486Z,6.597595
2023-03-27T12:48:11.195Z,6.446533
2023-03-27T12:49:18.873Z,6.265259
2023-03-27T12:50:28.582Z,6.416321
2023-03-27T12:51:38.242Z,6.597595
2023-03-27T12:52:46.946Z,6.65802
2023-03-27T12:53:56.600Z,6.65802
2023-03-27T12:55:04.457Z,6.698303
2023-03-27T12:56:13.045Z,6.738586
2023-03-27T12:57:22.838Z,6.809082
2023-03-27T12:58:31.595Z,6.738586
2023-03-27T12:59:41.083Z,6.809082
2023-03-27T13:00:50.736Z,6.78894
2023-03-27T13:01:59.417Z,6.698303
2023-03-27T13:03:09.240Z,6.748657
2023-03-27T13:04:17.858Z,6.849365
2023-03-27T13:05:27.680Z,6.738586
2023-03-27T13:06:36.338Z,6.668091
2023-03-27T13:07:46.105Z,6.517029
2023-03-27T13:08:55.789Z,6.436462
2023-03-27T13:10:04.459Z,6.27533
2023-03-27T13:11:13.170Z,6.164551
2023-03-27T13:12:22.826Z,6.013489
2023-03-27T13:13:31.642Z,5.973206
2023-03-27T13:14:41.290Z,5.822144
2023-03-27T13:15:50.962Z,5.761719
2023-03-27T13:16:59.640Z,5.802002
2023-03-27T13:18:08.354Z,5.973206
2023-03-27T13:19:17.013Z,5.993347
2023-03-27T13:20:25.661Z,5.942993
2023-03-27T13:21:36.041Z,5.912781
2023-03-27T13:22:43.999Z,6.02356
2023-03-27T13:23:52.654Z,6.174622
2023-03-27T13:25:02.307Z,5.973206
2023-03-27T13:26:10.971Z,5.892639
2023-03-27T13:27:20.693Z,5.872498
2023-03-27T13:28:28.378Z,5.862427
2023-03-27T13:29:36.063Z,5.862427
2023-03-27T13:30:45.725Z,5.862427
2023-03-27T13:31:54.396Z,5.832214
2023-03-27T13:33:04.204Z,5.731506
2023-03-27T13:34:13.915Z,5.761719